Time;durP1;ratioP1;P1;durP2;ratioP2;P2;SDS_P1;SDS_P2;PMS_P1;PMS_P2;Temp;Humidity;BMP_temperature;BMP_pressure;BME280_temperature;BME280_humidity;BME280_pressure;Samples;Min_cycle;Max_cycle;Signal;HPM_P1;HPM_P2
2024/01/17 00:00:51;;;;;;;13.47;6.57;;;;;;;;;;5079879;28;20074;-90
2024/01/17 00:03:16;;;;;;;15.82;6.50;;;;;;;;;;5078462;28;20024;-90
2024/01/17 00:05:42;;;;;;;10.63;5.87;;;;;;;;;;5090707;28;20024;-91
2024/01/17 00:08:13;;;;;;;12.60;6.10;;;;;;;;;;5106981;28;20008;-90
2024/01/17 00:10:41;;;;;;;13.40;6.70;;;;;;;;;;5097343;28;20052;-90
2024/01/17 00:13:07;;;;;;;17.07;7.10;;;;;;;;;;5075406;28;20017;-91
2024/01/17 00:15:32;;;;;;;13.60;6.57;;;;;;;;;;5093834;28;20021;-90
2024/01/17 00:17:57;;;;;;;13.50;7.10;;;;;;;;;;5118180;28;20277;-90
2024/01/17 00:20:22;;;;;;;12.23;6.67;;;;;;;;;;5114444;28;20020;-91
2024/01/17 00:22:49;;;;;;;19.10;6.90;;;;;;;;;;5071765;28;20103;-90
2024/01/17 00:25:14;;;;;;;10.85;7.10;;;;;;;;;;5087528;28;20073;-90
2024/01/17 00:27:39;;;;;;;13.50;6.50;;;;;;;;;;5094399;28;20020;-90
2024/01/17 00:30:06;;;;;;;14.53;7.50;;;;;;;;;;5094580;28;20028;-90
2024/01/17 00:32:31;;;;;;;12.98;7.03;;;;;;;;;;5077229;28;20471;-90
2024/01/17 00:34:57;;;;;;;18.43;6.93;;;;;;;;;;5095478;28;20024;-90
2024/01/17 00:37:22;;;;;;;15.53;7.23;;;;;;;;;;5095207;28;20432;-93
2024/01/17 00:39:49;;;;;;;13.20;6.93;;;;;;;;;;5075220;28;20024;-91
2024/01/17 00:42:14;;;;;;;12.50;6.18;;;;;;;;;;5066319;28;20017;-90
2024/01/17 00:44:40;;;;;;;12.87;6.50;;;;;;;;;;5084165;28;20088;-90
2024/01/17 00:47:06;;;;;;;14.35;6.93;;;;;;;;;;5098056;28;20085;-90
2024/01/17 00:49:32;;;;;;;15.43;7.00;;;;;;;;;;5086186;28;20020;-90
2024/01/17 00:51:57;;;;;;;12.90;6.87;;;;;;;;;;5079588;28;20027;-91
2024/01/17 00:54:22;;;;;;;14.43;7.73;;;;;;;;;;5088590;28;20503;-91
2024/01/17 00:56:48;;;;;;;14.67;6.67;;;;;;;;;;5099672;28;20024;-91
2024/01/17 00:59:13;;;;;;;18.00;7.30;;;;;;;;;;5094051;28;20065;-91
2024/01/17 01:01:38;;;;;;;14.20;7.10;;;;;;;;;;5092717;28;20028;-90
2024/01/17 01:04:04;;;;;;;11.70;6.47;;;;;;;;;;5080930;28;20141;-91
2024/01/17 01:06:29;;;;;;;15.60;7.30;;;;;;;;;;5087153;28;20124;-91
2024/01/17 01:08:54;;;;;;;14.70;6.80;;;;;;;;;;5084790;28;20032;-91
2024/01/17 01:11:19;;;;;;;15.63;6.73;;;;;;;;;;5082390;28;20035;-93
2024/01/17 01:13:45;;;;;;;12.93;6.70;;;;;;;;;;5086731;28;20024;-92
2024/01/17 01:16:10;;;;;;;12.40;6.40;;;;;;;;;;5055869;28;20069;-93
2024/01/17 01:18:36;;;;;;;13.17;6.57;;;;;;;;;;5066177;28;20016;-93
2024/01/17 01:27:19;;;;;;;13.20;7.10;;;;;;;;;;5029520;28;20025;-93
2024/01/17 01:29:45;;;;;;;17.60;7.27;;;;;;;;;;5093179;28;20072;-93
2024/01/17 01:32:10;;;;;;;16.20;6.53;;;;;;;;;;5083818;28;20274;-93
2024/01/17 01:34:35;;;;;;;17.03;7.13;;;;;;;;;;5090981;28;20028;-92
2024/01/17 01:37:01;;;;;;;18.30;7.67;;;;;;;;;;5071920;28;20016;-94
2024/01/17 01:39:26;;;;;;;14.43;7.57;;;;;;;;;;5094883;28;20016;-90
2024/01/17 01:41:52;;;;;;;17.80;8.17;;;;;;;;;;5084654;28;20095;-93
2024/01/17 01:44:17;;;;;;;13.33;6.53;;;;;;;;;;5067660;28;20281;-93
2024/01/17 01:46:45;;;;;;;13.43;7.23;;;;;;;;;;5076187;28;20025;-93
2024/01/17 01:49:10;;;;;;;15.52;7.35;;;;;;;;;;5093803;28;20020;-92
2024/01/17 01:51:36;;;;;;;18.17;8.37;;;;;;;;;;5083870;28;20051;-91
2024/01/17 01:54:03;;;;;;;16.42;7.82;;;;;;;;;;5078832;28;20463;-92
2024/01/17 01:56:30;;;;;;;14.10;6.88;;;;;;;;;;5094411;28;20020;-93
2024/01/17 01:58:56;;;;;;;17.55;7.78;;;;;;;;;;5091725;28;20020;-93
2024/01/17 02:01:23;;;;;;;14.60;7.47;;;;;;;;;;5061496;28;20025;-94
2024/01/17 02:03:48;;;;;;;18.40;7.50;;;;;;;;;;5061200;28;20024;-93
2024/01/17 02:06:14;;;;;;;18.27;7.77;;;;;;;;;;5060364;28;20466;-93
2024/01/17 02:08:39;;;;;;;14.20;7.70;;;;;;;;;;5097167;28;20209;-93
2024/01/17 02:11:05;;;;;;;15.50;7.00;;;;;;;;;;5101867;28;20303;-93
2024/01/17 02:13:31;;;;;;;16.17;8.18;;;;;;;;;;5090511;28;20025;-92
2024/01/17 02:15:56;;;;;;;12.67;6.77;;;;;;;;;;5089343;28;20032;-94
2024/01/17 02:18:22;;;;;;;13.83;7.43;;;;;;;;;;5074544;28;20016;-93
2024/01/17 02:20:47;;;;;;;16.23;7.93;;;;;;;;;;5083444;28;20064;-93
2024/01/17 02:23:22;;;;;;;21.23;8.03;;;;;;;;;;5088571;28;20127;-93
2024/01/17 02:25:49;;;;;;;14.10;6.90;;;;;;;;;;5091039;28;20012;-93
2024/01/17 02:28:14;;;;;;;11.77;6.50;;;;;;;;;;5077157;28;20016;-93
2024/01/17 02:30:39;;;;;;;13.23;7.33;;;;;;;;;;5080617;28;20303;-93
2024/01/17 02:33:04;;;;;;;16.23;7.53;;;;;;;;;;5057096;28;20024;-93
2024/01/17 02:35:29;;;;;;;18.40;7.63;;;;;;;;;;5074341;28;20057;-93
2024/01/17 02:37:55;;;;;;;17.90;7.57;;;;;;;;;;5092084;28;20028;-93
2024/01/17 02:40:20;;;;;;;15.37;7.13;;;;;;;;;;5090339;28;20417;-92
2024/01/17 02:42:45;;;;;;;14.23;7.13;;;;;;;;;;5071755;28;20052;-94
2024/01/17 02:45:10;;;;;;;13.07;6.67;;;;;;;;;;5085891;28;20679;-93
2024/01/17 02:47:36;;;;;;;13.47;7.47;;;;;;;;;;5092668;28;20053;-94
2024/01/17 02:50:01;;;;;;;16.38;7.43;;;;;;;;;;5076202;28;20038;-93
2024/01/17 02:52:26;;;;;;;14.73;7.13;;;;;;;;;;5084045;28;20566;-93
2024/01/17 02:54:52;;;;;;;10.80;6.50;;;;;;;;;;5079932;28;20012;-94
2024/01/17 02:57:20;;;;;;;15.90;7.07;;;;;;;;;;5053638;28;20051;-93
2024/01/17 02:59:45;;;;;;;12.65;6.70;;;;;;;;;;5089380;28;20456;-94
2024/01/17 03:02:11;;;;;;;13.20;6.60;;;;;;;;;;5091231;28;20118;-93
2024/01/17 03:04:36;;;;;;;12.43;6.27;;;;;;;;;;5096004;28;20024;-94
2024/01/17 03:07:01;;;;;;;17.83;7.00;;;;;;;;;;5089875;28;20009;-94
2024/01/17 03:09:26;;;;;;;10.57;6.40;;;;;;;;;;5092964;28;20069;-94
2024/01/17 03:11:52;;;;;;;13.83;6.67;;;;;;;;;;5106124;28;20024;-93
2024/01/17 03:14:17;;;;;;;18.37;6.93;;;;;;;;;;5084212;28;20111;-94
2024/01/17 03:16:42;;;;;;;15.32;6.72;;;;;;;;;;5093459;28;20630;-92
2024/01/17 03:19:07;;;;;;;17.80;6.17;;;;;;;;;;5103938;28;20034;-93
2024/01/17 03:21:33;;;;;;;17.27;6.60;;;;;;;;;;5115994;28;20019;-93
2024/01/17 03:23:58;;;;;;;15.63;6.73;;;;;;;;;;5070445;28;20021;-95
2024/01/17 03:26:23;;;;;;;12.23;6.37;;;;;;;;;;5090317;28;20016;-94
2024/01/17 03:28:48;;;;;;;13.90;6.27;;;;;;;;;;5073549;28;20032;-94
2024/01/17 03:31:14;;;;;;;14.57;6.03;;;;;;;;;;5056478;28;20044;-94
2024/01/17 03:33:39;;;;;;;12.17;6.40;;;;;;;;;;5075607;28;20103;-94
2024/01/17 03:36:05;;;;;;;16.73;6.77;;;;;;;;;;5088786;28;20077;-93
2024/01/17 03:38:30;;;;;;;13.35;6.43;;;;;;;;;;5094703;28;20077;-94
2024/01/17 03:41:00;;;;;;;13.60;6.93;;;;;;;;;;5091424;28;20404;-94
2024/01/17 03:43:25;;;;;;;15.25;6.68;;;;;;;;;;5057890;28;20051;-94
2024/01/17 03:45:53;;;;;;;15.80;6.33;;;;;;;;;;5068350;28;20058;-94
2024/01/17 03:48:18;;;;;;;11.73;6.97;;;;;;;;;;5076367;28;20722;-93
2024/01/17 03:50:43;;;;;;;11.20;5.40;;;;;;;;;;5094897;28;20055;-94
2024/01/17 03:53:09;;;;;;;14.43;6.50;;;;;;;;;;5103834;28;20008;-94
2024/01/17 03:55:34;;;;;;;14.07;6.90;;;;;;;;;;5102354;28;20537;-94
2024/01/17 03:57:59;;;;;;;13.53;6.30;;;;;;;;;;5106172;28;20008;-94
2024/01/17 04:00:24;;;;;;;11.63;6.90;;;;;;;;;;5103694;28;20080;-94
2024/01/17 04:02:49;;;;;;;12.43;6.33;;;;;;;;;;5097378;28;20028;-94
2024/01/17 04:05:19;;;;;;;13.80;6.57;;;;;;;;;;5095666;28;20046;-94
2024/01/17 04:07:44;;;;;;;13.85;7.15;;;;;;;;;;5062593;28;20024;-94
2024/01/17 04:10:09;;;;;;;15.27;7.97;;;;;;;;;;5089581;28;20034;-95
2024/01/17 04:12:35;;;;;;;19.30;8.03;;;;;;;;;;5077396;28;20048;-94
2024/01/17 04:15:00;;;;;;;20.20;8.48;;;;;;;;;;5057334;28;20020;-92
2024/01/17 04:17:25;;;;;;;18.83;7.73;;;;;;;;;;5074875;28;20017;-94
2024/01/17 04:19:50;;;;;;;14.23;7.27;;;;;;;;;;5085734;28;20027;-94
2024/01/17 04:22:15;;;;;;;19.30;7.60;;;;;;;;;;5079205;28;20054;-94
2024/01/17 04:24:41;;;;;;;17.70;7.57;;;;;;;;;;5103672;28;20032;-94
2024/01/17 04:27:06;;;;;;;16.57;7.13;;;;;;;;;;5064008;28;20055;-93
2024/01/17 04:29:31;;;;;;;14.80;7.90;;;;;;;;;;5056938;28;20028;-94
2024/01/17 04:31:57;;;;;;;22.88;8.30;;;;;;;;;;5083741;28;20070;-94
2024/01/17 04:34:22;;;;;;;17.73;8.40;;;;;;;;;;5096559;28;20550;-95
2024/01/17 04:36:47;;;;;;;18.90;8.37;;;;;;;;;;5085175;28;20475;-95
2024/01/17 04:39:14;;;;;;;17.37;7.27;;;;;;;;;;5080546;28;20021;-94
2024/01/17 04:41:39;;;;;;;17.33;6.80;;;;;;;;;;5080804;28;20016;-93
2024/01/17 04:44:05;;;;;;;16.80;7.30;;;;;;;;;;5086533;28;20022;-94
2024/01/17 04:46:30;;;;;;;19.70;6.73;;;;;;;;;;5093717;28;20062;-94
2024/01/17 04:48:55;;;;;;;15.23;7.80;;;;;;;;;;5095670;28;20039;-95
2024/01/17 04:51:25;;;;;;;13.75;7.97;;;;;;;;;;5075582;28;20081;-94
2024/01/17 04:53:51;;;;;;;16.20;7.63;;;;;;;;;;5086397;28;20016;-95
2024/01/17 04:56:16;;;;;;;13.90;6.72;;;;;;;;;;5072971;28;20032;-91
2024/01/17 04:58:41;;;;;;;20.07;8.30;;;;;;;;;;5072723;28;20460;-90
2024/01/17 05:01:07;;;;;;;15.67;7.53;;;;;;;;;;5074644;28;20656;-91
2024/01/17 05:03:32;;;;;;;14.70;7.57;;;;;;;;;;5084195;28;20020;-91
2024/01/17 05:05:59;;;;;;;13.63;7.22;;;;;;;;;;5072739;28;20599;-91
2024/01/17 05:08:24;;;;;;;16.47;8.43;;;;;;;;;;5072647;28;20107;-92
2024/01/17 05:10:50;;;;;;;16.20;8.00;;;;;;;;;;5065920;28;20201;-91
2024/01/17 05:13:15;;;;;;;18.13;7.47;;;;;;;;;;5084348;28;20381;-91
2024/01/17 05:15:40;;;;;;;12.10;6.80;;;;;;;;;;5071920;28;20016;-92
2024/01/17 05:18:06;;;;;;;13.73;7.47;;;;;;;;;;5072569;28;20063;-91
2024/01/17 05:20:31;;;;;;;15.07;8.00;;;;;;;;;;5056905;28;20027;-92
2024/01/17 05:22:56;;;;;;;15.20;7.13;;;;;;;;;;5076769;28;20016;-91
2024/01/17 05:25:22;;;;;;;13.73;7.47;;;;;;;;;;5075700;28;20029;-93
2024/01/17 05:27:51;;;;;;;17.43;7.63;;;;;;;;;;5092049;28;20032;-92
2024/01/17 05:30:17;;;;;;;15.73;7.60;;;;;;;;;;5090482;28;20032;-92
2024/01/17 05:32:42;;;;;;;19.60;8.05;;;;;;;;;;5084519;28;20037;-92
2024/01/17 05:35:08;;;;;;;16.83;8.47;;;;;;;;;;5091277;28;20020;-92
2024/01/17 05:37:33;;;;;;;19.57;8.67;;;;;;;;;;5074116;28;20534;-91
2024/01/17 05:39:58;;;;;;;13.63;7.60;;;;;;;;;;5073297;28;20056;-92
2024/01/17 05:42:23;;;;;;;15.83;7.87;;;;;;;;;;5072419;28;20328;-92
2024/01/17 05:44:48;;;;;;;19.97;8.10;;;;;;;;;;5056089;28;20032;-91
2024/01/17 05:47:14;;;;;;;20.87;8.77;;;;;;;;;;5104807;28;20129;-89
2024/01/17 05:49:39;;;;;;;23.75;8.88;;;;;;;;;;5089089;28;20062;-92
2024/01/17 05:52:05;;;;;;;20.03;9.03;;;;;;;;;;5085354;28;20120;-92
2024/01/17 05:54:30;;;;;;;17.23;8.00;;;;;;;;;;5057164;28;20028;-92
2024/01/17 05:56:55;;;;;;;23.77;9.63;;;;;;;;;;5062140;28;20024;-92
2024/01/17 05:59:20;;;;;;;22.90;9.67;;;;;;;;;;5085269;28;20028;-92
2024/01/17 06:01:46;;;;;;;21.70;8.60;;;;;;;;;;5071105;28;20141;-90
2024/01/17 06:04:11;;;;;;;16.03;8.07;;;;;;;;;;5072834;28;20035;-93
2024/01/17 06:06:36;;;;;;;20.63;9.23;;;;;;;;;;5078006;28;20025;-89
2024/01/17 06:09:01;;;;;;;14.80;8.00;;;;;;;;;;5069485;28;20457;-89
2024/01/17 06:11:26;;;;;;;13.93;7.87;;;;;;;;;;5080312;28;20043;-90
2024/01/17 06:13:53;;;;;;;18.10;8.00;;;;;;;;;;5083843;28;20027;-91
2024/01/17 06:16:18;;;;;;;22.40;9.25;;;;;;;;;;5096241;28;20016;-92
2024/01/17 06:18:44;;;;;;;23.70;10.70;;;;;;;;;;5099703;28;20040;-92
2024/01/17 06:21:09;;;;;;;17.48;8.40;;;;;;;;;;5084516;28;20016;-90
2024/01/17 06:23:34;;;;;;;14.73;7.63;;;;;;;;;;5074253;28;20139;-90
2024/01/17 06:25:59;;;;;;;15.80;8.50;;;;;;;;;;5080986;28;20044;-94
2024/01/17 06:28:25;;;;;;;15.07;9.70;;;;;;;;;;5092646;28;20016;-94
2024/01/17 06:30:50;;;;;;;21.97;9.60;;;;;;;;;;5065474;28;20521;-92
2024/01/17 06:33:17;;;;;;;14.77;6.67;;;;;;;;;;5090198;28;20027;-93
2024/01/17 06:35:43;;;;;;;17.33;8.45;;;;;;;;;;5090159;28;20074;-92
2024/01/17 06:38:08;;;;;;;15.23;8.07;;;;;;;;;;5085638;28;20016;-90
2024/01/17 06:40:33;;;;;;;15.27;9.07;;;;;;;;;;5080878;28;20028;-93
2024/01/17 06:42:58;;;;;;;19.50;7.63;;;;;;;;;;5085182;28;20024;-89
2024/01/17 06:45:25;;;;;;;15.87;7.80;;;;;;;;;;5070828;28;20267;-89
2024/01/17 06:47:50;;;;;;;24.53;9.97;;;;;;;;;;5073771;28;20112;-91
2024/01/17 06:50:15;;;;;;;16.40;8.43;;;;;;;;;;5075822;28;20119;-91
2024/01/17 06:52:40;;;;;;;13.38;7.60;;;;;;;;;;5074140;28;20096;-92
2024/01/17 06:55:06;;;;;;;11.97;6.90;;;;;;;;;;5079533;28;20016;-91
2024/01/17 06:57:31;;;;;;;17.13;7.30;;;;;;;;;;5086362;28;20016;-90
2024/01/17 06:59:57;;;;;;;15.77;7.47;;;;;;;;;;5089831;28;20028;-91
2024/01/17 07:02:23;;;;;;;13.15;6.65;;;;;;;;;;5097321;28;20109;-89
2024/01/17 07:04:48;;;;;;;16.20;8.07;;;;;;;;;;5089652;28;20023;-92
2024/01/17 07:07:13;;;;;;;16.40;8.30;;;;;;;;;;5081749;28;20480;-92
2024/01/17 07:09:39;;;;;;;15.73;7.83;;;;;;;;;;5091542;28;20019;-91
2024/01/17 07:12:05;;;;;;;14.90;7.57;;;;;;;;;;5087995;28;20083;-92
2024/01/17 07:14:30;;;;;;;16.52;8.48;;;;;;;;;;5082871;28;20421;-91
2024/01/17 07:16:55;;;;;;;21.87;9.70;;;;;;;;;;5083511;28;20032;-92
2024/01/17 07:19:20;;;;;;;17.60;8.73;;;;;;;;;;5093133;28;20046;-92
2024/01/17 07:21:46;;;;;;;18.40;8.30;;;;;;;;;;5079534;28;20107;-92
2024/01/17 07:24:12;;;;;;;19.13;7.10;;;;;;;;;;5076585;28;20013;-90
2024/01/17 07:26:37;;;;;;;15.95;7.55;;;;;;;;;;5104926;28;20307;-91
2024/01/17 07:29:03;;;;;;;13.13;6.87;;;;;;;;;;5095710;28;20123;-91
2024/01/17 07:31:28;;;;;;;14.37;7.13;;;;;;;;;;5100725;28;20033;-90
2024/01/17 07:33:53;;;;;;;12.47;7.50;;;;;;;;;;5077310;28;20020;-89
2024/01/17 07:36:18;;;;;;;12.63;7.03;;;;;;;;;;5092133;28;20025;-92
2024/01/17 07:38:43;;;;;;;15.90;7.00;;;;;;;;;;5074003;28;20017;-92
2024/01/17 07:41:09;;;;;;;15.13;7.30;;;;;;;;;;5080575;28;20103;-89
2024/01/17 07:43:34;;;;;;;19.13;11.57;;;;;;;;;;5087796;28;20104;-89
2024/01/17 07:45:59;;;;;;;18.10;7.60;;;;;;;;;;5076271;28;20078;-88
2024/01/17 07:48:24;;;;;;;16.13;6.67;;;;;;;;;;5072649;28;20060;-89
2024/01/17 07:50:50;;;;;;;17.77;7.17;;;;;;;;;;5074755;28;20556;-89
2024/01/17 07:53:16;;;;;;;13.93;6.50;;;;;;;;;;5074058;28;20012;-88
2024/01/17 07:55:41;;;;;;;14.23;6.68;;;;;;;;;;5088692;28;20027;-86
2024/01/17 07:58:07;;;;;;;12.50;6.00;;;;;;;;;;5091371;28;20348;-84
2024/01/17 08:00:32;;;;;;;12.97;7.90;;;;;;;;;;5083605;28;20103;-92
2024/01/17 08:02:58;;;;;;;15.13;6.83;;;;;;;;;;5082231;28;20067;-91
2024/01/17 08:05:23;;;;;;;14.63;6.80;;;;;;;;;;5072981;28;20111;-90
2024/01/17 08:07:48;;;;;;;12.57;6.97;;;;;;;;;;5080143;28;20026;-88
2024/01/17 08:10:13;;;;;;;13.10;6.37;;;;;;;;;;5088660;28;20279;-92
2024/01/17 08:12:38;;;;;;;16.13;7.63;;;;;;;;;;5092459;28;20020;-90
2024/01/17 08:15:04;;;;;;;13.30;7.00;;;;;;;;;;5096116;28;20058;-93
2024/01/17 08:17:30;;;;;;;13.73;7.23;;;;;;;;;;5100958;28;20089;-95
2024/01/17 08:19:55;;;;;;;19.83;7.70;;;;;;;;;;5078793;28;20052;-93
2024/01/17 08:22:20;;;;;;;18.43;7.73;;;;;;;;;;5092225;28;20282;-91
2024/01/17 08:24:45;;;;;;;19.80;7.80;;;;;;;;;;5071533;28;20126;-93
2024/01/17 08:27:10;;;;;;;15.07;7.60;;;;;;;;;;5092282;28;20020;-92
2024/01/17 08:29:36;;;;;;;17.77;7.27;;;;;;;;;;5071972;28;20041;-91
2024/01/17 08:32:01;;;;;;;18.03;7.40;;;;;;;;;;5106199;28;20051;-92
2024/01/17 08:34:26;;;;;;;16.73;8.17;;;;;;;;;;5080850;28;20070;-90
2024/01/17 08:36:54;;;;;;;13.07;7.33;;;;;;;;;;5102018;28;20032;-93
2024/01/17 08:39:20;;;;;;;16.17;7.73;;;;;;;;;;5102241;28;20536;-93
2024/01/17 08:41:46;;;;;;;16.05;7.50;;;;;;;;;;5089123;28;20028;-92
2024/01/17 08:44:15;;;;;;;15.55;8.10;;;;;;;;;;5100238;28;20023;-91
2024/01/17 08:46:46;;;;;;;14.63;7.40;;;;;;;;;;5095013;28;20022;-93
2024/01/17 08:49:12;;;;;;;12.90;6.90;;;;;;;;;;5096532;28;20021;-93
2024/01/17 08:51:37;;;;;;;15.60;7.27;;;;;;;;;;5087274;28;20082;-94
2024/01/17 08:54:03;;;;;;;15.77;7.23;;;;;;;;;;5094041;28;20622;-93
2024/01/17 08:56:28;;;;;;;13.85;6.28;;;;;;;;;;5092453;28;20511;-91
2024/01/17 08:58:54;;;;;;;14.90;7.40;;;;;;;;;;5087403;28;20013;-92
2024/01/17 09:01:19;;;;;;;14.57;6.80;;;;;;;;;;5089673;28;20028;-92
2024/01/17 09:03:44;;;;;;;12.63;7.37;;;;;;;;;;5075255;28;20023;-92
2024/01/17 09:06:10;;;;;;;18.03;8.37;;;;;;;;;;5092834;28;20631;-90
2024/01/17 09:08:35;;;;;;;19.77;7.57;;;;;;;;;;5092558;28;20016;-90
2024/01/17 09:11:00;;;;;;;15.67;8.07;;;;;;;;;;5088951;28;20111;-91
2024/01/17 09:13:25;;;;;;;17.77;9.30;;;;;;;;;;5090740;28;20023;-91
2024/01/17 09:15:50;;;;;;;22.37;10.00;;;;;;;;;;5094675;28;20274;-91
2024/01/17 09:18:17;;;;;;;18.20;9.53;;;;;;;;;;5113768;28;20430;-89
2024/01/17 09:20:44;;;;;;;15.60;7.93;;;;;;;;;;5107745;28;20020;-89
2024/01/17 09:23:09;;;;;;;17.37;8.73;;;;;;;;;;5099941;28;20269;-91
2024/01/17 09:25:35;;;;;;;22.80;9.57;;;;;;;;;;5112017;28;20004;-91
2024/01/17 09:28:00;;;;;;;20.63;9.93;;;;;;;;;;5077659;28;20495;-90
2024/01/17 09:30:25;;;;;;;18.97;10.20;;;;;;;;;;5075404;28;20305;-91
2024/01/17 09:32:50;;;;;;;17.60;9.30;;;;;;;;;;5094817;28;20046;-89
2024/01/17 09:35:16;;;;;;;18.73;9.03;;;;;;;;;;5095113;28;20058;-91
2024/01/17 09:37:41;;;;;;;22.50;10.03;;;;;;;;;;5095860;28;20016;-91
2024/01/17 09:40:08;;;;;;;17.23;9.60;;;;;;;;;;5094671;28;20585;-88
2024/01/17 09:42:33;;;;;;;19.95;9.57;;;;;;;;;;5100544;28;20059;-89
2024/01/17 09:44:59;;;;;;;19.47;10.83;;;;;;;;;;5093160;28;20036;-89
2024/01/17 09:47:24;;;;;;;17.83;10.80;;;;;;;;;;5091371;28;20030;-89
2024/01/17 09:49:50;;;;;;;17.80;10.17;;;;;;;;;;5103294;28;20282;-92
2024/01/17 09:52:17;;;;;;;18.47;7.90;;;;;;;;;;5074806;28;20398;-94
2024/01/17 09:54:45;;;;;;;13.88;8.05;;;;;;;;;;5078056;28;20017;-91
2024/01/17 09:57:17;;;;;;;16.15;9.10;;;;;;;;;;5098219;28;20023;-93
2024/01/17 09:59:48;;;;;;;16.90;8.70;;;;;;;;;;5081519;28;20095;-92
2024/01/17 10:02:15;;;;;;;16.80;8.38;;;;;;;;;;5093290;28;20047;-94
2024/01/17 10:04:41;;;;;;;16.80;9.10;;;;;;;;;;5105473;28;20011;-93
2024/01/17 10:07:06;;;;;;;17.15;10.00;;;;;;;;;;5128679;28;20399;-94
2024/01/17 10:09:31;;;;;;;18.73;10.20;;;;;;;;;;5113338;28;20008;-93
2024/01/17 10:11:56;;;;;;;18.40;9.30;;;;;;;;;;5096605;28;20069;-94
2024/01/17 10:14:23;;;;;;;18.87;10.17;;;;;;;;;;5093719;28;20099;-94
2024/01/17 10:16:48;;;;;;;18.52;9.70;;;;;;;;;;5093607;28;20054;-92
2024/01/17 10:19:15;;;;;;;19.80;10.27;;;;;;;;;;5095406;28;20057;-93
2024/01/17 10:21:41;;;;;;;19.65;10.05;;;;;;;;;;5075403;28;20016;-93
2024/01/17 10:24:06;;;;;;;18.13;9.67;;;;;;;;;;5093576;28;20020;-93
2024/01/17 10:26:32;;;;;;;19.38;10.55;;;;;;;;;;5075985;28;20095;-93
2024/01/17 10:28:58;;;;;;;18.97;10.03;;;;;;;;;;5098606;28;20016;-92
2024/01/17 10:31:24;;;;;;;17.77;9.82;;;;;;;;;;5084809;28;20025;-92
2024/01/17 10:33:50;;;;;;;19.03;9.33;;;;;;;;;;5084917;28;20020;-93
2024/01/17 10:36:16;;;;;;;18.10;9.03;;;;;;;;;;5061980;28;20441;-91
2024/01/17 10:38:41;;;;;;;16.95;9.18;;;;;;;;;;5084418;28;20548;-93
2024/01/17 10:41:06;;;;;;;15.20;8.90;;;;;;;;;;5067298;28;20028;-92
2024/01/17 10:43:32;;;;;;;16.27;9.10;;;;;;;;;;5072921;28;20082;-93
2024/01/17 10:46:00;;;;;;;21.73;9.50;;;;;;;;;;5057897;28;20035;-90
2024/01/17 10:48:25;;;;;;;18.98;8.75;;;;;;;;;;5092003;28;20514;-92
2024/01/17 10:50:54;;;;;;;17.73;8.33;;;;;;;;;;5072325;28;20024;-92
2024/01/17 10:53:19;;;;;;;16.85;7.80;;;;;;;;;;5078569;28;20495;-90
2024/01/17 10:55:45;;;;;;;21.67;7.40;;;;;;;;;;5073647;28;20032;-91
2024/01/17 10:58:13;;;;;;;20.77;7.20;;;;;;;;;;5068130;28;20028;-92
2024/01/17 11:00:41;;;;;;;11.77;7.30;;;;;;;;;;5090800;28;20254;-91
2024/01/17 11:03:09;;;;;;;15.20;6.63;;;;;;;;;;5091178;28;20103;-91
2024/01/17 11:05:39;;;;;;;12.65;6.70;;;;;;;;;;5089462;28;20030;-92
2024/01/17 11:08:04;;;;;;;15.38;7.05;;;;;;;;;;5090849;28;20020;-91
2024/01/17 11:10:30;;;;;;;11.43;7.17;;;;;;;;;;5079166;28;20111;-87
2024/01/17 11:12:56;;;;;;;16.60;7.18;;;;;;;;;;5095719;28;20028;-90
2024/01/17 11:15:22;;;;;;;15.30;7.00;;;;;;;;;;5095227;28;20483;-88
2024/01/17 11:17:48;;;;;;;15.23;6.93;;;;;;;;;;5081849;28;20024;-91
2024/01/17 11:20:15;;;;;;;13.85;6.40;;;;;;;;;;5073758;28;20034;-88
2024/01/17 11:22:40;;;;;;;16.65;7.45;;;;;;;;;;5075761;28;20503;-89
2024/01/17 11:25:16;;;;;;;15.97;7.07;;;;;;;;;;5082524;28;20016;-89
2024/01/17 11:27:50;;;;;;;15.23;7.25;;;;;;;;;;5088755;28;20103;-90
2024/01/17 11:30:28;;;;;;;11.63;6.70;;;;;;;;;;5085945;28;20035;-89
2024/01/17 11:33:11;;;;;;;17.73;6.40;;;;;;;;;;5071032;28;20275;-90
2024/01/17 11:35:43;;;;;;;21.85;7.05;;;;;;;;;;5075563;28;20013;-90
2024/01/17 11:38:27;;;;;;;12.00;7.10;;;;;;;;;;5095114;28;20028;-89
2024/01/17 11:41:01;;;;;;;13.55;6.88;;;;;;;;;;5067131;28;20467;-88
2024/01/17 11:43:27;;;;;;;13.43;6.93;;;;;;;;;;5083181;28;20537;-88
2024/01/17 11:45:53;;;;;;;12.30;6.65;;;;;;;;;;5083676;28;20055;-87
2024/01/17 11:48:24;;;;;;;15.43;6.57;;;;;;;;;;5099113;28;20020;-90
2024/01/17 11:51:16;;;;;;;13.40;7.13;;;;;;;;;;5089101;28;20309;-89
2024/01/17 11:53:42;;;;;;;15.50;7.63;;;;;;;;;;5083810;28;20495;-87
2024/01/17 11:56:08;;;;;;;15.55;7.70;;;;;;;;;;5093343;28;20028;-87
2024/01/17 11:58:44;;;;;;;16.48;6.55;;;;;;;;;;5092237;28;20072;-86
2024/01/17 12:01:12;;;;;;;14.45;7.03;;;;;;;;;;5088182;28;20027;-87
2024/01/17 12:03:37;;;;;;;15.57;7.13;;;;;;;;;;5073422;28;20344;-88
2024/01/17 12:06:03;;;;;;;15.90;7.23;;;;;;;;;;5076672;28;20026;-87
2024/01/17 12:08:28;;;;;;;14.73;7.10;;;;;;;;;;5086524;28;20024;-88
2024/01/17 12:10:54;;;;;;;18.27;7.20;;;;;;;;;;5075281;28;20021;-88
2024/01/17 12:13:20;;;;;;;10.75;6.40;;;;;;;;;;5083370;28;20016;-89
2024/01/17 12:15:46;;;;;;;13.77;7.10;;;;;;;;;;5079599;28;20091;-89
2024/01/17 12:18:11;;;;;;;13.20;6.95;;;;;;;;;;5073922;28;20043;-91
2024/01/17 12:20:36;;;;;;;13.60;7.07;;;;;;;;;;5098587;28;20544;-89
2024/01/17 12:23:02;;;;;;;16.57;7.00;;;;;;;;;;5064481;28;20016;-92
2024/01/17 12:25:27;;;;;;;12.00;7.13;;;;;;;;;;5081511;28;20099;-89
2024/01/17 12:27:55;;;;;;;14.70;7.60;;;;;;;;;;5089945;28;20282;-90
2024/01/17 12:30:20;;;;;;;13.77;6.97;;;;;;;;;;5055000;28;20029;-91
2024/01/17 12:32:46;;;;;;;16.90;7.40;;;;;;;;;;5092099;28;20024;-90
2024/01/17 12:35:12;;;;;;;19.13;7.82;;;;;;;;;;5077298;28;20024;-90
2024/01/17 12:37:37;;;;;;;15.00;7.13;;;;;;;;;;5081324;28;20017;-90
2024/01/17 12:40:04;;;;;;;15.23;7.03;;;;;;;;;;5078908;28;20543;-90
2024/01/17 12:42:30;;;;;;;13.48;7.40;;;;;;;;;;5092814;28;20035;-90
2024/01/17 12:44:55;;;;;;;17.42;7.95;;;;;;;;;;5094584;28;20012;-90
2024/01/17 12:47:22;;;;;;;16.03;7.50;;;;;;;;;;5093423;28;20540;-90
2024/01/17 12:49:47;;;;;;;17.33;8.13;;;;;;;;;;5091660;28;20034;-89
2024/01/17 12:52:13;;;;;;;16.07;8.20;;;;;;;;;;5072270;28;20507;-90
2024/01/17 12:54:39;;;;;;;16.77;7.47;;;;;;;;;;5078096;28;20329;-89
2024/01/17 12:57:04;;;;;;;16.10;7.73;;;;;;;;;;5091193;28;20035;-89
2024/01/17 12:59:31;;;;;;;15.87;7.47;;;;;;;;;;5072572;28;20028;-89
2024/01/17 13:01:58;;;;;;;14.30;7.00;;;;;;;;;;5073168;28;20266;-89
2024/01/17 13:04:23;;;;;;;17.17;7.68;;;;;;;;;;5096793;28;20077;-89
2024/01/17 13:06:50;;;;;;;17.03;7.73;;;;;;;;;;5091151;28;20472;-89
2024/01/17 13:09:17;;;;;;;12.95;7.18;;;;;;;;;;5078068;28;20107;-89
2024/01/17 13:11:47;;;;;;;25.13;8.88;;;;;;;;;;5090515;28;20040;-89
2024/01/17 13:14:14;;;;;;;20.48;8.02;;;;;;;;;;5091950;28;20038;-89
2024/01/17 13:16:40;;;;;;;18.13;7.80;;;;;;;;;;5078585;28;20028;-88
2024/01/17 13:19:07;;;;;;;16.93;7.37;;;;;;;;;;5090470;28;20061;-90
2024/01/17 13:21:32;;;;;;;15.82;7.72;;;;;;;;;;5090946;28;20047;-90
2024/01/17 13:23:58;;;;;;;19.33;8.63;;;;;;;;;;5102396;28;20047;-90
2024/01/17 13:26:23;;;;;;;17.58;8.52;;;;;;;;;;5084084;28;20414;-90
2024/01/17 13:28:48;;;;;;;22.40;8.93;;;;;;;;;;5091418;28;20073;-90
2024/01/17 13:31:14;;;;;;;17.63;9.17;;;;;;;;;;5079305;28;20093;-89
2024/01/17 13:33:39;;;;;;;21.25;8.48;;;;;;;;;;5091263;28;20392;-89
2024/01/17 13:36:05;;;;;;;19.10;8.00;;;;;;;;;;5083981;28;20116;-89
2024/01/17 13:38:33;;;;;;;16.13;8.60;;;;;;;;;;5086271;28;20028;-90
2024/01/17 13:41:00;;;;;;;14.85;8.57;;;;;;;;;;5079188;28;20020;-90
2024/01/17 13:43:26;;;;;;;15.45;8.88;;;;;;;;;;5071542;28;20808;-87
2024/01/17 13:45:51;;;;;;;21.40;7.73;;;;;;;;;;5063588;28;20016;-88
2024/01/17 13:48:17;;;;;;;17.40;8.30;;;;;;;;;;5088250;28;20031;-87
2024/01/17 13:50:43;;;;;;;15.97;8.63;;;;;;;;;;5088783;28;20039;-88
2024/01/17 13:53:17;;;;;;;18.93;8.97;;;;;;;;;;5088964;28;20394;-88
2024/01/17 13:55:43;;;;;;;20.45;8.80;;;;;;;;;;5085653;28;20509;-87
2024/01/17 13:58:08;;;;;;;14.87;8.93;;;;;;;;;;5073059;28;20115;-88
2024/01/17 14:00:38;;;;;;;16.47;9.77;;;;;;;;;;5069855;28;20024;-88
2024/01/17 14:03:03;;;;;;;16.92;9.63;;;;;;;;;;5086680;28;20027;-88
2024/01/17 14:05:30;;;;;;;20.07;9.77;;;;;;;;;;5086869;28;20100;-88
2024/01/17 14:07:55;;;;;;;20.13;10.60;;;;;;;;;;5087605;28;20035;-88
2024/01/17 14:10:20;;;;;;;16.50;9.03;;;;;;;;;;5089626;28;20404;-88
2024/01/17 14:12:45;;;;;;;20.87;9.67;;;;;;;;;;5090180;28;20023;-88
2024/01/17 14:15:11;;;;;;;21.53;9.67;;;;;;;;;;5087276;28;20047;-88
2024/01/17 14:17:36;;;;;;;21.97;9.63;;;;;;;;;;5090533;28;20274;-88
2024/01/17 14:20:04;;;;;;;20.97;9.40;;;;;;;;;;5070347;28;20024;-88
2024/01/17 14:22:30;;;;;;;17.80;9.50;;;;;;;;;;5093179;28;20106;-88
2024/01/17 14:24:55;;;;;;;19.73;9.38;;;;;;;;;;5057200;28;20107;-90
2024/01/17 14:27:20;;;;;;;17.93;8.53;;;;;;;;;;5060998;28;20029;-88